Impacts TAF Board INFO
FOR SITUATIONAL AWARENESS. NOT TO BE USED FOR FLIGHT PLANNING PURPOSES.
IDs:

KBOS - Boston/Logan Intl, MA, US

Issued at 1530 UTC 19 Nov 2017
Updated at 1551 UTC 19 Nov 2017
Potential Impact None Slight Moderate High
Time<<20/16Z 20/17Z 20/18Z 20/19Z 20/20Z 20/21Z 20/22Z 20/23Z 21/00Z 21/01Z 21/02Z 21/03Z 21/04Z
Type PRVL PRVL
VIS >6 >6
CIG -- --
Cover SKC SKC
FltCat VFR VFR
WX -- --
WDir 270 270
WSpd 14 14
WGst 29 29

Raw TAF
KBOS 191530Z 1915/2018 19015G22KT P6SM -SHRA SCT015 OVC035
  TEMPO 1915/1917 BKN015
  FM191700 27023G39KT P6SM BKN045
  FM191900 27019G37KT P6SM SCT080
  FM200000 27014G29KT P6SM SKC


METAR Board
Radar Display
Forecast Discussion

FOR SITUATIONAL AWARENESS. NOT TO BE USED FOR FLIGHT PLANNING PURPOSES.